Everly, Iowa
Current Conditions -  °F | °C
As of 7:53 AM on Friday 19 Dec 2014 (Local Time) from KSPW Reporting Station
Haze Haze  
Wind Chill: 22°   Ceiling: 600
Heat Index: 30°   Visibility: 5mi
Dew Point: 27°   Wind: 8mph
Humidity: 88%   Direction: 170°S
Pressure: 30.19"   Gusts: NA
Location:  43.16°N, 95.33°W
Report Text: KSPW 191353Z AUTO 17007KT 5SM BR OVC006 M01/M03 A3019 RMK AO2 SLP240 T10111028 TSNO
Loading
Personal Weather Stations






























Interactive Weather Map New forecast layout! Learn more

10-Day Weather Forecast

Advertisements
Track Severe Weather on mobile